Latest Coastal Weather Observations for Swanbourne

IDW60701

Issued at 6:42 am WST Sunday 1 February 2015 (issued every 10 minutes, with the page automatically refreshed every 10 minutes)

About coastal observations | Map of coastal stations | Coastal observations for WA | Marine services | Other Formats
Station Details ID: 009215 Name: SWANBOURNE Lat: -31.96 Lon: 115.76 Height: 40.96 m
Data from the previous 72 hours. | See also: Recent months at Swanbourne
Date/Time
WST
Temp

°C
Wind Pressure Rain
since 9am
mm
Weather Cloud Vis
km
Sea
Height
m
Swell
Dir
 
Speed
knots
Gust
knots
hPa Trend Height
m
Period
s
Dir
01/06:30am 21.4 E 13 19 - - 0.0 - - - - - - -
01/06:00am 21.3 E 12 19 - - 0.0 - - - - - - -
01/05:30am 21.3 E 12 17 - - 0.0 - - - - - - -
01/05:00am 21.6 E 11 18 - - 0.0 - - - - - - -
01/04:30am 21.6 E 10 15 - - 0.0 - - - - - - -
01/04:00am 21.8 ESE 11 18 - - 0.0 - - - - - - -
01/03:30am 22.0 ESE 11 19 - - 0.0 - - - - - - -
01/03:00am 22.2 ESE 11 17 - - 0.0 - - - - - - -
01/02:30am 22.8 E 12 20 - - 0.0 - - - - - - -
01/02:00am 23.2 E 8 14 - - 0.0 - - - - - - -
01/01:30am 23.7 ESE 10 16 - - 0.0 - - - - - - -
01/01:00am 24.4 ESE 11 20 - - 0.0 - - - - - - -
01/12:30am 24.9 ESE 10 17 - - 0.0 - - - - - - -
01/12:00am 25.6 ESE 12 19 - - 0.0 - - - - - - -
 
Date/Time
WST
Temp

°C
Wind Pressure Rain
since 9am
mm
Weather Cloud Vis
km
Sea
Height
m
Swell
Dir
 
Speed
knots
Gust
knots
hPa Trend Height
m
Period
s
Dir
31/11:30pm 26.1 ESE 10 16 - - 0.0 - - - - - - -
31/11:00pm 26.9 ESE 11 17 - - 0.0 - - - - - - -
31/10:30pm 27.4 ESE 11 19 - - 0.0 - - - - - - -
31/10:00pm 27.6 ESE 9 15 - - 0.0 - - - - - - -
31/09:30pm 28.1 ESE 10 17 - - 0.0 - - - - - - -
31/09:00pm 28.1 ESE 8 13 - - 0.0 - - - - - - -
31/08:30pm 28.3 ESE 7 11 - - 0.0 - - - - - - -
31/08:00pm 28.8 ESE 10 15 - - 0.0 - - - - - - -
31/07:30pm 29.0 E 10 16 - - 0.0 - - - - - - -
31/07:00pm 29.6 E 9 15 - - 0.0 - - - - - - -
31/06:30pm 30.0 E 9 13 - - 0.0 - - - - - - -
31/06:00pm 30.6 ESE 8 14 - - 0.0 - - - - - - -
31/05:30pm 31.7 ESE 11 17 - - 0.0 - - - - - - -
31/05:00pm 31.7 ESE 10 15 - - 0.0 - - - - - - -
31/04:30pm 31.8 E 8 12 - - 0.0 - - - - - - -
31/04:00pm 31.8 E 6 10 - - 0.0 - - - - - - -
31/03:30pm 31.5 ESE 7 10 - - 0.0 - - - - - - -
31/03:00pm 30.7 E 8 14 - - 0.0 - - - - - - -
31/02:30pm 30.5 ESE 8 15 - - 0.0 - - - - - - -
31/02:00pm 29.6 ESE 8 13 - - 0.0 - - - - - - -
31/01:30pm 29.2 ESE 10 19 - - 0.0 - - - - - - -
31/01:00pm 29.3 ESE 12 17 - - 0.0 - - - - - - -
31/12:30pm 30.0 ESE 10 18 - - 0.0 - - - - - - -
31/12:00pm 30.5 ESE 12 18 - - 0.0 - - - - - - -
31/11:30am 29.9 ESE 12 19 - - 0.0 - - - - - - -
31/11:00am 28.6 ESE 9 14 - - 0.0 - - - - - - -
31/10:30am 27.4 E 9 16 - - 0.0 - - - - - - -
31/10:00am 27.3 ESE 8 13 - - 0.0 - - - - - - -
31/09:30am 26.9 ESE 8 14 - - 0.0 - - - - - - -
31/09:00am 26.6 E 9 13 - - 0.0 - - - - - - -
31/08:30am 24.7 ESE 9 16 - - 0.0 - - - - - - -
31/08:00am 23.6 ESE 9 14 - - 0.0 - - - - - - -
31/07:30am 21.8 ESE 11 18 - - 0.0 - - - - - - -
31/07:00am 20.7 E 9 15 - - 0.0 - - - - - - -
31/06:30am 20.4 E 11 17 - - 0.0 - - - - - - -
31/06:00am 20.2 E 13 22 - - 0.0 - - - - - - -
31/05:30am 20.8 E 9 14 - - 0.0 - - - - - - -
31/05:00am 20.7 ESE 6 11 - - 0.0 - - - - - - -
31/04:30am 21.4 E 11 18 - - 0.0 - - - - - - -
31/04:00am 21.3 E 11 16 - - 0.0 - - - - - - -
31/03:30am 22.0 E 13 19 - - 0.0 - - - - - - -
31/03:00am 22.8 E 11 20 - - 0.0 - - - - - - -
31/02:30am 23.8 E 10 17 - - 0.0 - - - - - - -
31/02:00am 24.3 E 9 14 - - 0.0 - - - - - - -
31/01:30am 24.9 E 11 16 - - 0.0 - - - - - - -
31/01:00am 25.6 ESE 10 18 - - 0.0 - - - - - - -
31/12:30am 26.4 ESE 13 22 - - 0.0 - - - - - - -
31/12:00am 27.3 ESE 13 22 - - 0.0 - - - - - - -
 
Date/Time
WST
Temp

°C
Wind Pressure Rain
since 9am
mm
Weather Cloud Vis
km
Sea
Height
m
Swell
Dir
 
Speed
knots
Gust
knots
hPa Trend Height
m
Period
s
Dir
30/11:30pm 28.4 E 13 24 - - 0.0 - - - - - - -
30/11:00pm 29.3 ESE 16 26 - - 0.0 - - - - - - -
30/10:48pm 29.5 ESE 15 26 - - 0.0 - - - - - - -
30/10:30pm 29.9 ESE 14 21 - - 0.0 - - - - - - -
30/10:17pm 30.3 ESE 15 25 - - 0.0 - - - - - - -
30/10:00pm 30.2 ESE 11 19 - - 0.0 - - - - - - -
30/09:30pm 29.3 SE 9 14 - - 0.0 - - - - - - -
30/09:00pm 28.6 SE 6 7 - - 0.0 - - - - - - -
30/08:30pm 28.7 SE 5 7 - - 0.0 - - - - - - -
30/08:00pm 29.6 SE 4 6 - - 0.0 - - - - - - -
30/07:30pm 30.5 ESE 3 4 - - 0.0 - - - - - - -
30/07:00pm 31.4 SE 4 6 - - 0.0 - - - - - - -
30/06:30pm 32.2 ESE 4 7 - - 0.0 - - - - - - -
30/06:00pm 32.9 SE 5 8 - - 0.0 - - - - - - -
30/05:30pm 34.3 E 4 8 - - 0.0 - - - - - - -
30/05:00pm 34.8 SE 4 6 - - 0.0 - - - - - - -
30/04:30pm 34.7 E 6 10 - - 0.0 - - - - - - -
30/04:00pm 35.0 E 5 9 - - 0.0 - - - - - - -
30/03:30pm 34.5 E 5 8 - - 0.0 - - - - - - -
30/03:00pm 34.8 ENE 9 13 - - 0.0 - - - - - - -
30/02:30pm 36.3 ENE 10 16 - - 0.0 - - - - - - -
30/02:00pm 36.8 E 13 22 - - 0.0 - - - - - - -
30/01:30pm 37.8 E 12 23 - - 0.0 - - - - - - -
30/01:00pm 37.0 E 11 20 - - 0.0 - - - - - - -
30/12:30pm 35.3 E 11 22 - - 0.0 - - - - - - -
30/12:00pm 35.3 ESE 7 10 - - 0.0 - - - - - - -
30/11:30am 34.0 ESE 6 11 - - 0.0 - - - - - - -
30/11:28am 34.5 ESE 6 11 - - 0.0 - - - - - - -
30/11:00am 29.5 NW 2 4 - - 0.0 - - - - - - -
30/10:30am 29.8 N 5 7 - - 0.0 - - - - - - -
30/10:00am 28.7 SE 5 7 - - 0.0 - - - - - - -
30/09:30am 25.7 E 2 4 - - 0.0 - - - - - - -
30/09:00am 25.8 ESE 2 3 - - 0.6 - - - - - - -
30/08:30am 25.6 E 5 9 - - 0.6 - - - - - - -
30/08:00am 24.6 ESE 8 13 - - 0.6 - - - - - - -
30/07:30am 23.8 SE 4 7 - - 0.6 - - - - - - -
30/07:00am 23.1 SSE 2 4 - - 0.6 - - - - - - -
30/06:30am 22.5 SE 1 4 - - 0.6 - - - - - - -
30/06:00am 22.2 S 2 6 - - 0.6 - - - - - - -
30/05:30am 21.9 S 3 4 - - 0.6 - - - - - - -
30/05:00am 22.3 SE 5 6 - - 0.6 - - - - - - -
30/04:30am 21.9 SSE 4 7 - - 0.6 - - - - - - -
30/04:00am 22.3 S 5 5 - - 0.6 - - - - - - -
30/03:30am 22.6 SSE 4 5 - - 0.6 - - - - - - -
30/03:00am 22.6 SE 6 8 - - 0.6 - - - - - - -
30/02:30am 22.3 SSE 4 5 - - 0.6 - - - - - - -
30/02:00am 22.8 S 5 5 - - 0.6 - - - - - - -
30/01:30am 23.3 SSE 5 5 - - 0.6 - - - - - - -
30/01:00am 24.6 SSE 5 5 - - 0.6 - - - - - - -
30/12:30am 25.6 ENE 5 7 - - 0.6 - - - - - - -
30/12:00am 26.0 NNE 4 5 - - 0.6 - - - - - - -
 
Date/Time
WST
Temp

°C
Wind Pressure Rain
since 9am
mm
Weather Cloud Vis
km
Sea
Height
m
Swell
Dir
 
Speed
knots
Gust
knots
hPa Trend Height
m
Period
s
Dir
29/11:30pm 26.1 NE 2 4 - - 0.6 - - - - - - -
29/11:00pm 27.4 E 6 12 - - 0.6 - - - - - - -
29/10:30pm 27.2 SE 9 13 - - 0.6 - - - - - - -
29/10:00pm 26.6 SE 7 10 - - 0.6 - - - - - - -
29/09:30pm 25.6 SE 6 10 - - 0.6 - - - - - - -
29/09:00pm 25.6 SE 6 10 - - 0.6 - - - - - - -
29/08:30pm 25.2 S 8 11 - - 0.6 - - - - - - -
29/08:00pm 25.5 S 7 11 - - 0.6 - - - - - - -
29/07:30pm 25.4 S 6 12 - - 0.6 - - - - - - -
29/07:00pm 25.8 SSW 9 16 - - 0.6 - - - - - - -
29/06:30pm 26.3 SSW 11 17 - - 0.6 - - - - - - -
29/06:00pm 26.7 SSW 12 18 - - 0.6 - - - - - - -
29/05:30pm 27.0 SSW 13 19 - - 0.6 - - - - - - -
29/05:00pm 26.9 SSW 11 19 - - 0.6 - - - - - - -
29/04:30pm 26.8 SSW 15 21 - - 0.6 - - - - - - -
29/04:00pm 27.8 SSW 13 18 - - 0.6 - - - - - - -
29/03:30pm 26.9 SSW 14 19 - - 0.6 - - - - - - -
29/03:00pm 28.5 SSW 11 18 - - 0.6 - - - - - - -
29/02:30pm 27.8 SW 12 17 - - 0.6 - - - - - - -
29/02:00pm 28.5 SSW 13 17 - - 0.6 - - - - - - -
29/01:30pm 28.1 SSW 11 16 - - 0.6 - - - - - - -
29/01:00pm 28.7 SW 10 16 - - 0.6 - - - - - - -
29/12:30pm 29.1 SW 8 11 - - 0.6 - - - - - - -
29/12:00pm 26.4 SSW 7 11 - - 0.6 Recent precip. - - - - - -
29/11:30am 23.5 S 7 11 - - 0.6 - - - - - - -
29/11:00am 25.3 SW 9 13 - - 0.0 - - - - - - -
29/10:30am 25.3 SSW 9 13 - - 0.0 - - - - - - -
29/10:00am 27.0 SW 9 12 - - 0.0 - - - - - - -
29/09:30am 26.3 SW 6 12 - - 0.0 - - - - - - -
29/09:00am 25.5 SW 7 11 - - 0.6 - - - - - - -
29/08:30am 23.5 SSW 7 11 - - 0.6 - - - - - - -
29/08:00am 22.7 SSW 5 9 - - 0.6 - - - - - - -
29/07:30am 22.3 SSW 7 11 - - 0.6 - - - - - - -
29/07:00am 22.2 WSW 6 9 - - 0.6 - - - - - - -

Other Formats:

Comma delimited format used in spreadsheet applications
http://www.bom.gov.au/fwo/IDW60701/IDW60701.94614.axf

JavaScript Object Notation format (JSON) in row-major order
http://www.bom.gov.au/fwo/IDW60701/IDW60701.94614.json